sensor_id;sensor_type;location;lat;lon;timestamp;P1;durP1;ratioP1;P2;durP2;ratioP2
6939;SDS011;3509;48.510;9.076;2022-07-05T00:02:14;9.13;;;8.32;;
6939;SDS011;3509;48.510;9.076;2022-07-05T00:04:40;9.70;;;8.57;;
6939;SDS011;3509;48.510;9.076;2022-07-05T00:07:06;9.50;;;8.57;;
6939;SDS011;3509;48.510;9.076;2022-07-05T00:09:45;8.85;;;8.02;;
6939;SDS011;3509;48.510;9.076;2022-07-05T00:12:15;12.32;;;7.63;;
6939;SDS011;3509;48.510;9.076;2022-07-05T00:14:43;9.23;;;8.30;;
6939;SDS011;3509;48.510;9.076;2022-07-05T00:17:09;9.18;;;8.38;;
6939;SDS011;3509;48.510;9.076;2022-07-05T00:19:36;9.60;;;8.63;;
6939;SDS011;3509;48.510;9.076;2022-07-05T00:22:02;10.38;;;8.80;;
6939;SDS011;3509;48.510;9.076;2022-07-05T00:24:27;10.13;;;9.10;;
6939;SDS011;3509;48.510;9.076;2022-07-05T00:26:54;10.23;;;9.00;;
6939;SDS011;3509;48.510;9.076;2022-07-05T00:29:19;11.50;;;10.27;;
6939;SDS011;3509;48.510;9.076;2022-07-05T00:31:45;13.43;;;12.13;;
6939;SDS011;3509;48.510;9.076;2022-07-05T00:34:11;12.45;;;11.15;;
6939;SDS011;3509;48.510;9.076;2022-07-05T00:36:36;11.05;;;9.95;;
6939;SDS011;3509;48.510;9.076;2022-07-05T00:39:03;13.25;;;10.50;;
6939;SDS011;3509;48.510;9.076;2022-07-05T00:41:29;12.52;;;11.15;;
6939;SDS011;3509;48.510;9.076;2022-07-05T00:43:56;12.20;;;11.07;;
6939;SDS011;3509;48.510;9.076;2022-07-05T00:46:24;13.20;;;11.82;;
6939;SDS011;3509;48.510;9.076;2022-07-05T00:48:51;13.70;;;12.02;;
6939;SDS011;3509;48.510;9.076;2022-07-05T00:51:17;11.18;;;10.02;;
6939;SDS011;3509;48.510;9.076;2022-07-05T00:53:44;11.32;;;9.98;;
6939;SDS011;3509;48.510;9.076;2022-07-05T00:56:10;11.48;;;10.10;;
6939;SDS011;3509;48.510;9.076;2022-07-05T00:58:37;16.00;;;10.38;;
6939;SDS011;3509;48.510;9.076;2022-07-05T01:01:03;13.40;;;11.27;;
6939;SDS011;3509;48.510;9.076;2022-07-05T01:03:31;13.95;;;9.90;;
6939;SDS011;3509;48.510;9.076;2022-07-05T01:05:58;14.07;;;12.68;;
6939;SDS011;3509;48.510;9.076;2022-07-05T01:08:25;12.70;;;11.05;;
6939;SDS011;3509;48.510;9.076;2022-07-05T01:10:52;16.08;;;12.55;;
6939;SDS011;3509;48.510;9.076;2022-07-05T01:13:21;14.43;;;11.75;;
6939;SDS011;3509;48.510;9.076;2022-07-05T01:15:47;14.45;;;10.40;;
6939;SDS011;3509;48.510;9.076;2022-07-05T01:18:14;10.88;;;9.77;;
6939;SDS011;3509;48.510;9.076;2022-07-05T01:20:41;11.73;;;10.38;;
6939;SDS011;3509;48.510;9.076;2022-07-05T01:23:07;13.55;;;12.07;;
6939;SDS011;3509;48.510;9.076;2022-07-05T01:25:33;14.70;;;13.27;;
6939;SDS011;3509;48.510;9.076;2022-07-05T01:28:00;16.23;;;12.80;;
6939;SDS011;3509;48.510;9.076;2022-07-05T01:30:28;15.68;;;14.10;;
6939;SDS011;3509;48.510;9.076;2022-07-05T01:32:55;17.13;;;13.45;;
6939;SDS011;3509;48.510;9.076;2022-07-05T01:35:20;13.48;;;12.15;;
6939;SDS011;3509;48.510;9.076;2022-07-05T01:37:47;14.45;;;12.98;;
6939;SDS011;3509;48.510;9.076;2022-07-05T01:40:13;14.65;;;13.07;;
6939;SDS011;3509;48.510;9.076;2022-07-05T01:42:39;13.55;;;12.35;;
6939;SDS011;3509;48.510;9.076;2022-07-05T01:45:05;14.70;;;13.13;;
6939;SDS011;3509;48.510;9.076;2022-07-05T01:47:32;14.25;;;12.85;;
6939;SDS011;3509;48.510;9.076;2022-07-05T01:50:05;17.95;;;14.07;;
6939;SDS011;3509;48.510;9.076;2022-07-05T01:52:32;17.38;;;14.00;;
6939;SDS011;3509;48.510;9.076;2022-07-05T01:55:02;13.82;;;12.15;;
6939;SDS011;3509;48.510;9.076;2022-07-05T01:57:28;17.48;;;13.95;;
6939;SDS011;3509;48.510;9.076;2022-07-05T01:59:54;14.85;;;12.93;;
6939;SDS011;3509;48.510;9.076;2022-07-05T02:02:20;15.10;;;13.55;;
6939;SDS011;3509;48.510;9.076;2022-07-05T02:04:45;13.95;;;12.65;;
6939;SDS011;3509;48.510;9.076;2022-07-05T02:07:11;14.90;;;13.30;;
6939;SDS011;3509;48.510;9.076;2022-07-05T02:09:36;16.13;;;13.93;;
6939;SDS011;3509;48.510;9.076;2022-07-05T02:12:03;14.73;;;13.20;;
6939;SDS011;3509;48.510;9.076;2022-07-05T02:14:30;14.75;;;13.25;;
6939;SDS011;3509;48.510;9.076;2022-07-05T02:16:56;14.63;;;13.02;;
6939;SDS011;3509;48.510;9.076;2022-07-05T02:19:21;15.85;;;13.00;;
6939;SDS011;3509;48.510;9.076;2022-07-05T02:21:47;15.25;;;12.68;;
6939;SDS011;3509;48.510;9.076;2022-07-05T02:24:13;14.73;;;13.23;;
6939;SDS011;3509;48.510;9.076;2022-07-05T02:26:39;15.98;;;13.68;;
6939;SDS011;3509;48.510;9.076;2022-07-05T02:29:05;17.00;;;15.23;;
6939;SDS011;3509;48.510;9.076;2022-07-05T02:31:30;17.23;;;15.43;;
6939;SDS011;3509;48.510;9.076;2022-07-05T02:33:56;16.20;;;14.75;;
6939;SDS011;3509;48.510;9.076;2022-07-05T02:36:23;18.23;;;15.88;;
6939;SDS011;3509;48.510;9.076;2022-07-05T02:38:48;16.58;;;14.95;;
6939;SDS011;3509;48.510;9.076;2022-07-05T02:41:14;18.63;;;15.55;;
6939;SDS011;3509;48.510;9.076;2022-07-05T02:43:40;16.63;;;14.70;;
6939;SDS011;3509;48.510;9.076;2022-07-05T02:46:06;19.63;;;15.55;;
6939;SDS011;3509;48.510;9.076;2022-07-05T02:48:34;15.43;;;13.93;;
6939;SDS011;3509;48.510;9.076;2022-07-05T02:51:01;18.10;;;13.85;;
6939;SDS011;3509;48.510;9.076;2022-07-05T02:53:27;14.63;;;13.07;;
6939;SDS011;3509;48.510;9.076;2022-07-05T02:55:53;15.27;;;13.73;;
6939;SDS011;3509;48.510;9.076;2022-07-05T02:58:19;17.58;;;14.65;;
6939;SDS011;3509;48.510;9.076;2022-07-05T03:00:46;16.42;;;14.65;;
6939;SDS011;3509;48.510;9.076;2022-07-05T03:03:12;16.00;;;13.80;;
6939;SDS011;3509;48.510;9.076;2022-07-05T03:05:39;16.08;;;13.95;;
6939;SDS011;3509;48.510;9.076;2022-07-05T03:08:05;17.10;;;14.57;;
6939;SDS011;3509;48.510;9.076;2022-07-05T03:10:31;15.88;;;14.07;;
6939;SDS011;3509;48.510;9.076;2022-07-05T03:12:57;17.27;;;14.57;;
6939;SDS011;3509;48.510;9.076;2022-07-05T03:15:23;16.90;;;15.07;;
6939;SDS011;3509;48.510;9.076;2022-07-05T03:17:49;19.55;;;16.08;;
6939;SDS011;3509;48.510;9.076;2022-07-05T03:20:14;16.88;;;15.13;;
6939;SDS011;3509;48.510;9.076;2022-07-05T03:22:40;17.95;;;14.98;;
6939;SDS011;3509;48.510;9.076;2022-07-05T03:25:05;15.57;;;13.88;;
6939;SDS011;3509;48.510;9.076;2022-07-05T03:27:31;19.27;;;15.07;;
6939;SDS011;3509;48.510;9.076;2022-07-05T03:29:57;15.98;;;14.27;;
6939;SDS011;3509;48.510;9.076;2022-07-05T03:32:23;19.52;;;15.43;;
6939;SDS011;3509;48.510;9.076;2022-07-05T03:34:48;17.30;;;15.50;;
6939;SDS011;3509;48.510;9.076;2022-07-05T03:37:14;17.58;;;15.57;;
6939;SDS011;3509;48.510;9.076;2022-07-05T03:39:39;16.70;;;15.00;;
6939;SDS011;3509;48.510;9.076;2022-07-05T03:42:05;19.52;;;15.05;;
6939;SDS011;3509;48.510;9.076;2022-07-05T03:44:31;21.17;;;15.80;;
6939;SDS011;3509;48.510;9.076;2022-07-05T03:46:58;22.30;;;16.42;;
6939;SDS011;3509;48.510;9.076;2022-07-05T03:49:24;18.05;;;16.15;;
6939;SDS011;3509;48.510;9.076;2022-07-05T03:51:49;19.02;;;16.25;;
6939;SDS011;3509;48.510;9.076;2022-07-05T03:54:15;17.98;;;16.17;;
6939;SDS011;3509;48.510;9.076;2022-07-05T03:56:41;17.83;;;16.02;;
6939;SDS011;3509;48.510;9.076;2022-07-05T03:59:06;19.25;;;16.95;;
6939;SDS011;3509;48.510;9.076;2022-07-05T04:01:32;18.90;;;16.13;;
6939;SDS011;3509;48.510;9.076;2022-07-05T04:03:58;16.92;;;15.23;;
6939;SDS011;3509;48.510;9.076;2022-07-05T04:06:23;17.23;;;15.13;;
6939;SDS011;3509;48.510;9.076;2022-07-05T04:08:49;18.50;;;15.50;;
6939;SDS011;3509;48.510;9.076;2022-07-05T04:11:15;20.13;;;17.65;;
6939;SDS011;3509;48.510;9.076;2022-07-05T04:13:41;20.90;;;17.30;;
6939;SDS011;3509;48.510;9.076;2022-07-05T04:16:07;20.58;;;17.23;;
6939;SDS011;3509;48.510;9.076;2022-07-05T04:18:33;19.15;;;16.80;;
6939;SDS011;3509;48.510;9.076;2022-07-05T04:20:59;19.98;;;16.92;;
6939;SDS011;3509;48.510;9.076;2022-07-05T04:23:25;20.08;;;16.58;;
6939;SDS011;3509;48.510;9.076;2022-07-05T04:25:51;19.67;;;16.50;;
6939;SDS011;3509;48.510;9.076;2022-07-05T04:28:16;18.90;;;16.33;;
6939;SDS011;3509;48.510;9.076;2022-07-05T04:30:42;18.85;;;16.90;;
6939;SDS011;3509;48.510;9.076;2022-07-05T04:33:07;22.65;;;18.08;;
6939;SDS011;3509;48.510;9.076;2022-07-05T04:35:33;19.20;;;17.23;;
6939;SDS011;3509;48.510;9.076;2022-07-05T04:37:59;20.92;;;18.17;;
6939;SDS011;3509;48.510;9.076;2022-07-05T04:40:24;18.48;;;16.52;;
6939;SDS011;3509;48.510;9.076;2022-07-05T04:42:50;24.60;;;18.08;;
6939;SDS011;3509;48.510;9.076;2022-07-05T04:45:16;19.27;;;17.30;;
6939;SDS011;3509;48.510;9.076;2022-07-05T04:47:41;23.25;;;16.55;;
6939;SDS011;3509;48.510;9.076;2022-07-05T04:50:07;21.33;;;19.02;;
6939;SDS011;3509;48.510;9.076;2022-07-05T04:52:33;20.15;;;18.05;;
6939;SDS011;3509;48.510;9.076;2022-07-05T04:54:59;19.85;;;17.92;;
6939;SDS011;3509;48.510;9.076;2022-07-05T04:57:25;20.02;;;17.90;;
6939;SDS011;3509;48.510;9.076;2022-07-05T04:59:51;20.33;;;16.48;;
6939;SDS011;3509;48.510;9.076;2022-07-05T05:02:17;18.63;;;14.40;;
6939;SDS011;3509;48.510;9.076;2022-07-05T05:04:42;13.45;;;12.07;;
6939;SDS011;3509;48.510;9.076;2022-07-05T05:07:08;14.48;;;12.88;;
6939;SDS011;3509;48.510;9.076;2022-07-05T05:09:34;14.60;;;11.48;;
6939;SDS011;3509;48.510;9.076;2022-07-05T05:11:59;13.77;;;10.65;;
6939;SDS011;3509;48.510;9.076;2022-07-05T05:14:25;14.15;;;9.30;;
6939;SDS011;3509;48.510;9.076;2022-07-05T05:16:51;9.73;;;7.72;;
6939;SDS011;3509;48.510;9.076;2022-07-05T05:19:16;11.65;;;7.05;;
6939;SDS011;3509;48.510;9.076;2022-07-05T05:21:42;7.45;;;5.25;;
6939;SDS011;3509;48.510;9.076;2022-07-05T05:24:07;10.10;;;4.25;;
6939;SDS011;3509;48.510;9.076;2022-07-05T05:26:33;11.23;;;3.78;;
6939;SDS011;3509;48.510;9.076;2022-07-05T05:28:59;7.88;;;3.13;;
6939;SDS011;3509;48.510;9.076;2022-07-05T05:31:24;5.22;;;2.40;;
6939;SDS011;3509;48.510;9.076;2022-07-05T05:33:50;8.18;;;2.70;;
6939;SDS011;3509;48.510;9.076;2022-07-05T05:36:16;5.80;;;2.80;;
6939;SDS011;3509;48.510;9.076;2022-07-05T05:38:42;3.92;;;2.40;;
6939;SDS011;3509;48.510;9.076;2022-07-05T05:41:07;5.22;;;2.33;;
6939;SDS011;3509;48.510;9.076;2022-07-05T05:43:33;4.93;;;2.30;;
6939;SDS011;3509;48.510;9.076;2022-07-05T05:45:59;7.60;;;2.40;;
6939;SDS011;3509;48.510;9.076;2022-07-05T05:48:24;3.88;;;2.40;;
6939;SDS011;3509;48.510;9.076;2022-07-05T05:50:50;7.40;;;2.80;;
6939;SDS011;3509;48.510;9.076;2022-07-05T05:53:16;7.95;;;2.65;;
6939;SDS011;3509;48.510;9.076;2022-07-05T05:55:42;5.15;;;2.50;;
6939;SDS011;3509;48.510;9.076;2022-07-05T05:58:18;8.63;;;2.80;;
6939;SDS011;3509;48.510;9.076;2022-07-05T06:00:47;4.93;;;2.40;;
6939;SDS011;3509;48.510;9.076;2022-07-05T06:03:13;5.43;;;2.35;;
6939;SDS011;3509;48.510;9.076;2022-07-05T06:05:40;5.25;;;2.13;;
6939;SDS011;3509;48.510;9.076;2022-07-05T06:08:06;6.10;;;2.35;;
6939;SDS011;3509;48.510;9.076;2022-07-05T06:10:32;8.30;;;2.25;;
6939;SDS011;3509;48.510;9.076;2022-07-05T06:13:00;4.38;;;2.30;;
6939;SDS011;3509;48.510;9.076;2022-07-05T06:15:27;5.85;;;2.30;;
6939;SDS011;3509;48.510;9.076;2022-07-05T06:17:54;5.65;;;2.00;;
6939;SDS011;3509;48.510;9.076;2022-07-05T06:20:21;3.35;;;2.10;;
6939;SDS011;3509;48.510;9.076;2022-07-05T06:22:49;5.38;;;2.03;;
6939;SDS011;3509;48.510;9.076;2022-07-05T06:25:15;5.25;;;3.63;;
6939;SDS011;3509;48.510;9.076;2022-07-05T06:27:42;4.85;;;2.70;;
6939;SDS011;3509;48.510;9.076;2022-07-05T06:30:13;5.72;;;2.45;;
6939;SDS011;3509;48.510;9.076;2022-07-05T06:32:42;4.63;;;2.00;;
6939;SDS011;3509;48.510;9.076;2022-07-05T06:35:09;3.55;;;1.95;;
6939;SDS011;3509;48.510;9.076;2022-07-05T06:37:42;6.25;;;2.60;;
6939;SDS011;3509;48.510;9.076;2022-07-05T06:40:11;3.28;;;2.17;;
6939;SDS011;3509;48.510;9.076;2022-07-05T06:42:38;5.32;;;2.08;;
6939;SDS011;3509;48.510;9.076;2022-07-05T06:45:07;6.45;;;2.15;;
6939;SDS011;3509;48.510;9.076;2022-07-05T06:47:33;3.38;;;2.20;;
6939;SDS011;3509;48.510;9.076;2022-07-05T06:49:59;5.05;;;2.53;;
6939;SDS011;3509;48.510;9.076;2022-07-05T06:52:27;4.00;;;2.03;;
6939;SDS011;3509;48.510;9.076;2022-07-05T06:54:54;5.25;;;2.30;;
6939;SDS011;3509;48.510;9.076;2022-07-05T06:57:22;4.63;;;1.90;;
6939;SDS011;3509;48.510;9.076;2022-07-05T06:59:48;4.60;;;1.92;;
6939;SDS011;3509;48.510;9.076;2022-07-05T07:02:14;6.75;;;2.00;;
6939;SDS011;3509;48.510;9.076;2022-07-05T07:04:40;4.85;;;1.90;;
6939;SDS011;3509;48.510;9.076;2022-07-05T07:07:06;3.72;;;1.75;;
6939;SDS011;3509;48.510;9.076;2022-07-05T07:09:58;3.40;;;1.73;;
6939;SDS011;3509;48.510;9.076;2022-07-05T07:12:24;3.25;;;1.90;;
6939;SDS011;3509;48.510;9.076;2022-07-05T07:14:50;3.67;;;2.20;;
6939;SDS011;3509;48.510;9.076;2022-07-05T07:17:15;2.80;;;1.60;;
6939;SDS011;3509;48.510;9.076;2022-07-05T07:19:41;4.00;;;1.67;;
6939;SDS011;3509;48.510;9.076;2022-07-05T07:22:07;9.38;;;1.80;;
6939;SDS011;3509;48.510;9.076;2022-07-05T07:24:32;3.00;;;1.60;;
6939;SDS011;3509;48.510;9.076;2022-07-05T07:26:58;4.45;;;1.70;;
6939;SDS011;3509;48.510;9.076;2022-07-05T07:29:34;3.75;;;1.60;;
6939;SDS011;3509;48.510;9.076;2022-07-05T07:32:01;5.22;;;2.00;;
6939;SDS011;3509;48.510;9.076;2022-07-05T07:34:28;2.33;;;1.50;;
6939;SDS011;3509;48.510;9.076;2022-07-05T07:36:54;3.97;;;1.42;;
6939;SDS011;3509;48.510;9.076;2022-07-05T07:39:21;2.22;;;1.70;;
6939;SDS011;3509;48.510;9.076;2022-07-05T07:41:48;4.72;;;1.52;;
6939;SDS011;3509;48.510;9.076;2022-07-05T07:44:14;3.10;;;1.88;;
6939;SDS011;3509;48.510;9.076;2022-07-05T07:46:40;6.13;;;1.80;;
6939;SDS011;3509;48.510;9.076;2022-07-05T07:49:06;2.30;;;1.58;;
6939;SDS011;3509;48.510;9.076;2022-07-05T07:51:32;4.78;;;1.80;;
6939;SDS011;3509;48.510;9.076;2022-07-05T07:53:59;1.90;;;1.60;;
6939;SDS011;3509;48.510;9.076;2022-07-05T07:56:25;4.57;;;1.80;;
6939;SDS011;3509;48.510;9.076;2022-07-05T07:58:51;2.70;;;1.50;;
6939;SDS011;3509;48.510;9.076;2022-07-05T08:01:17;3.05;;;1.65;;
6939;SDS011;3509;48.510;9.076;2022-07-05T08:03:43;2.83;;;1.70;;
6939;SDS011;3509;48.510;9.076;2022-07-05T08:06:10;2.88;;;1.70;;
6939;SDS011;3509;48.510;9.076;2022-07-05T08:08:39;5.07;;;1.70;;
6939;SDS011;3509;48.510;9.076;2022-07-05T08:11:06;2.92;;;1.40;;
6939;SDS011;3509;48.510;9.076;2022-07-05T08:13:34;3.10;;;1.95;;
6939;SDS011;3509;48.510;9.076;2022-07-05T08:16:00;3.38;;;1.90;;
6939;SDS011;3509;48.510;9.076;2022-07-05T08:18:27;3.13;;;1.55;;
6939;SDS011;3509;48.510;9.076;2022-07-05T08:21:11;3.00;;;1.92;;
6939;SDS011;3509;48.510;9.076;2022-07-05T08:24:04;2.20;;;1.70;;
6939;SDS011;3509;48.510;9.076;2022-07-05T08:26:32;2.92;;;2.03;;
6939;SDS011;3509;48.510;9.076;2022-07-05T08:28:59;2.72;;;1.65;;
6939;SDS011;3509;48.510;9.076;2022-07-05T08:31:29;3.10;;;1.70;;
6939;SDS011;3509;48.510;9.076;2022-07-05T08:33:56;2.28;;;1.65;;
6939;SDS011;3509;48.510;9.076;2022-07-05T08:36:22;3.42;;;1.42;;
6939;SDS011;3509;48.510;9.076;2022-07-05T08:38:48;2.55;;;1.60;;
6939;SDS011;3509;48.510;9.076;2022-07-05T08:41:13;2.95;;;1.48;;
6939;SDS011;3509;48.510;9.076;2022-07-05T08:43:44;4.00;;;1.50;;
6939;SDS011;3509;48.510;9.076;2022-07-05T08:46:11;3.90;;;1.80;;
6939;SDS011;3509;48.510;9.076;2022-07-05T08:48:39;4.43;;;1.60;;
6939;SDS011;3509;48.510;9.076;2022-07-05T08:51:12;3.97;;;1.70;;
6939;SDS011;3509;48.510;9.076;2022-07-05T08:53:40;5.10;;;1.60;;
6939;SDS011;3509;48.510;9.076;2022-07-05T08:56:10;1.85;;;1.70;;
6939;SDS011;3509;48.510;9.076;2022-07-05T08:58:37;5.78;;;1.60;;
6939;SDS011;3509;48.510;9.076;2022-07-05T09:01:03;3.65;;;1.70;;
6939;SDS011;3509;48.510;9.076;2022-07-05T09:03:34;3.65;;;1.70;;
6939;SDS011;3509;48.510;9.076;2022-07-05T09:06:06;1.52;;;1.42;;
6939;SDS011;3509;48.510;9.076;2022-07-05T09:08:37;2.63;;;1.70;;
6939;SDS011;3509;48.510;9.076;2022-07-05T09:11:11;3.20;;;1.70;;
6939;SDS011;3509;48.510;9.076;2022-07-05T09:13:40;6.95;;;2.05;;
6939;SDS011;3509;48.510;9.076;2022-07-05T09:16:07;3.70;;;1.63;;
6939;SDS011;3509;48.510;9.076;2022-07-05T09:21:19;2.90;;;1.60;;
6939;SDS011;3509;48.510;9.076;2022-07-05T09:23:54;2.30;;;1.58;;
6939;SDS011;3509;48.510;9.076;2022-07-05T09:26:31;6.25;;;1.80;;
6939;SDS011;3509;48.510;9.076;2022-07-05T09:29:01;8.95;;;1.90;;
6939;SDS011;3509;48.510;9.076;2022-07-05T09:31:30;3.58;;;1.55;;
6939;SDS011;3509;48.510;9.076;2022-07-05T09:34:07;2.45;;;1.60;;
6939;SDS011;3509;48.510;9.076;2022-07-05T09:36:46;1.65;;;1.50;;
6939;SDS011;3509;48.510;9.076;2022-07-05T09:39:12;4.70;;;1.67;;
6939;SDS011;3509;48.510;9.076;2022-07-05T09:41:38;2.85;;;1.50;;
6939;SDS011;3509;48.510;9.076;2022-07-05T09:44:04;5.80;;;1.70;;
6939;SDS011;3509;48.510;9.076;2022-07-05T09:46:30;2.83;;;1.65;;
6939;SDS011;3509;48.510;9.076;2022-07-05T09:48:56;3.85;;;1.70;;
6939;SDS011;3509;48.510;9.076;2022-07-05T09:51:22;3.40;;;1.52;;
6939;SDS011;3509;48.510;9.076;2022-07-05T09:53:53;1.60;;;1.40;;
6939;SDS011;3509;48.510;9.076;2022-07-05T09:56:20;2.13;;;1.60;;
6939;SDS011;3509;48.510;9.076;2022-07-05T09:58:54;2.88;;;1.15;;
6939;SDS011;3509;48.510;9.076;2022-07-05T10:01:26;5.53;;;1.50;;
6939;SDS011;3509;48.510;9.076;2022-07-05T10:03:57;2.28;;;1.45;;
6939;SDS011;3509;48.510;9.076;2022-07-05T10:06:25;2.45;;;1.50;;
6939;SDS011;3509;48.510;9.076;2022-07-05T10:08:54;4.18;;;1.65;;
6939;SDS011;3509;48.510;9.076;2022-07-05T10:11:21;2.80;;;1.42;;
6939;SDS011;3509;48.510;9.076;2022-07-05T10:13:51;3.63;;;1.65;;
6939;SDS011;3509;48.510;9.076;2022-07-05T10:16:17;2.22;;;1.50;;
6939;SDS011;3509;48.510;9.076;2022-07-05T10:18:45;4.30;;;1.50;;
6939;SDS011;3509;48.510;9.076;2022-07-05T10:21:18;4.32;;;1.38;;
6939;SDS011;3509;48.510;9.076;2022-07-05T10:23:45;3.45;;;1.50;;
6939;SDS011;3509;48.510;9.076;2022-07-05T10:26:19;2.50;;;1.50;;
6939;SDS011;3509;48.510;9.076;2022-07-05T10:28:46;2.10;;;1.33;;
6939;SDS011;3509;48.510;9.076;2022-07-05T10:31:14;1.60;;;1.23;;
6939;SDS011;3509;48.510;9.076;2022-07-05T10:33:40;2.88;;;1.33;;
6939;SDS011;3509;48.510;9.076;2022-07-05T10:36:06;3.58;;;1.63;;
6939;SDS011;3509;48.510;9.076;2022-07-05T10:38:44;2.75;;;1.33;;
6939;SDS011;3509;48.510;9.076;2022-07-05T10:41:12;3.08;;;1.45;;
6939;SDS011;3509;48.510;9.076;2022-07-05T10:43:42;1.33;;;1.23;;
6939;SDS011;3509;48.510;9.076;2022-07-05T10:46:08;3.88;;;1.48;;
6939;SDS011;3509;48.510;9.076;2022-07-05T10:48:34;2.20;;;1.35;;
6939;SDS011;3509;48.510;9.076;2022-07-05T10:51:00;2.33;;;1.40;;
6939;SDS011;3509;48.510;9.076;2022-07-05T10:58:33;1.40;;;1.20;;
6939;SDS011;3509;48.510;9.076;2022-07-05T11:06:25;1.77;;;1.10;;
6939;SDS011;3509;48.510;9.076;2022-07-05T11:11:24;2.90;;;1.33;;
6939;SDS011;3509;48.510;9.076;2022-07-05T11:13:57;4.35;;;1.30;;
6939;SDS011;3509;48.510;9.076;2022-07-05T11:16:25;1.40;;;1.20;;
6939;SDS011;3509;48.510;9.076;2022-07-05T11:18:52;2.08;;;1.25;;
6939;SDS011;3509;48.510;9.076;2022-07-05T11:21:29;2.55;;;1.38;;
6939;SDS011;3509;48.510;9.076;2022-07-05T11:24:17;5.00;;;1.42;;
6939;SDS011;3509;48.510;9.076;2022-07-05T11:26:48;3.08;;;1.30;;
6939;SDS011;3509;48.510;9.076;2022-07-05T11:32:16;2.10;;;1.40;;
6939;SDS011;3509;48.510;9.076;2022-07-05T11:34:52;3.53;;;1.30;;
6939;SDS011;3509;48.510;9.076;2022-07-05T11:40:25;1.75;;;1.40;;
6939;SDS011;3509;48.510;9.076;2022-07-05T11:42:37;4.03;;;1.52;;
6939;SDS011;3509;48.510;9.076;2022-07-05T11:45:10;5.00;;;1.67;;
6939;SDS011;3509;48.510;9.076;2022-07-05T11:47:36;2.08;;;1.38;;
6939;SDS011;3509;48.510;9.076;2022-07-05T11:50:02;3.20;;;1.30;;
6939;SDS011;3509;48.510;9.076;2022-07-05T11:52:32;1.25;;;1.10;;
6939;SDS011;3509;48.510;9.076;2022-07-05T11:55:01;3.00;;;1.30;;
6939;SDS011;3509;48.510;9.076;2022-07-05T11:57:36;5.15;;;1.35;;
6939;SDS011;3509;48.510;9.076;2022-07-05T12:00:12;3.22;;;1.40;;
6939;SDS011;3509;48.510;9.076;2022-07-05T12:02:44;1.50;;;1.30;;
6939;SDS011;3509;48.510;9.076;2022-07-05T12:05:10;3.80;;;1.10;;
6939;SDS011;3509;48.510;9.076;2022-07-05T12:07:47;2.83;;;1.25;;
6939;SDS011;3509;48.510;9.076;2022-07-05T12:10:14;3.70;;;1.23;;
6939;SDS011;3509;48.510;9.076;2022-07-05T12:13:08;1.73;;;1.30;;
6939;SDS011;3509;48.510;9.076;2022-07-05T12:15:35;2.33;;;1.45;;
6939;SDS011;3509;48.510;9.076;2022-07-05T12:18:02;4.30;;;1.45;;
6939;SDS011;3509;48.510;9.076;2022-07-05T12:20:29;3.67;;;1.50;;
6939;SDS011;3509;48.510;9.076;2022-07-05T12:22:59;3.10;;;1.30;;
6939;SDS011;3509;48.510;9.076;2022-07-05T12:25:26;2.88;;;1.33;;
6939;SDS011;3509;48.510;9.076;2022-07-05T12:27:53;3.33;;;1.40;;
6939;SDS011;3509;48.510;9.076;2022-07-05T12:30:21;6.07;;;1.55;;
6939;SDS011;3509;48.510;9.076;2022-07-05T12:33:06;4.00;;;1.20;;
6939;SDS011;3509;48.510;9.076;2022-07-05T12:35:39;7.35;;;1.40;;
6939;SDS011;3509;48.510;9.076;2022-07-05T12:38:06;6.15;;;1.45;;
6939;SDS011;3509;48.510;9.076;2022-07-05T12:40:33;7.40;;;1.55;;
6939;SDS011;3509;48.510;9.076;2022-07-05T12:43:07;3.03;;;1.35;;
6939;SDS011;3509;48.510;9.076;2022-07-05T12:45:38;2.83;;;1.35;;
6939;SDS011;3509;48.510;9.076;2022-07-05T12:48:05;2.80;;;1.40;;
6939;SDS011;3509;48.510;9.076;2022-07-05T12:50:47;1.42;;;1.33;;
6939;SDS011;3509;48.510;9.076;2022-07-05T12:53:14;2.58;;;1.20;;
6939;SDS011;3509;48.510;9.076;2022-07-05T12:58:46;2.50;;;1.50;;
6939;SDS011;3509;48.510;9.076;2022-07-05T13:01:20;1.50;;;1.20;;
6939;SDS011;3509;48.510;9.076;2022-07-05T13:06:41;3.42;;;1.42;;
6939;SDS011;3509;48.510;9.076;2022-07-05T13:09:16;3.30;;;1.40;;
6939;SDS011;3509;48.510;9.076;2022-07-05T13:14:49;1.55;;;1.40;;
6939;SDS011;3509;48.510;9.076;2022-07-05T13:17:17;3.17;;;1.48;;
6939;SDS011;3509;48.510;9.076;2022-07-05T13:19:46;3.40;;;1.60;;
6939;SDS011;3509;48.510;9.076;2022-07-05T13:22:13;1.70;;;1.35;;
6939;SDS011;3509;48.510;9.076;2022-07-05T13:24:39;4.63;;;1.90;;
6939;SDS011;3509;48.510;9.076;2022-07-05T13:27:05;4.65;;;1.70;;
6939;SDS011;3509;48.510;9.076;2022-07-05T13:29:32;3.88;;;1.55;;
6939;SDS011;3509;48.510;9.076;2022-07-05T13:31:58;4.53;;;1.70;;
6939;SDS011;3509;48.510;9.076;2022-07-05T13:34:24;2.35;;;1.30;;
6939;SDS011;3509;48.510;9.076;2022-07-05T13:36:51;3.33;;;1.30;;
6939;SDS011;3509;48.510;9.076;2022-07-05T13:39:21;2.30;;;1.20;;
6939;SDS011;3509;48.510;9.076;2022-07-05T13:41:48;2.55;;;1.40;;
6939;SDS011;3509;48.510;9.076;2022-07-05T13:44:15;1.98;;;1.33;;
6939;SDS011;3509;48.510;9.076;2022-07-05T13:46:40;4.47;;;1.45;;
6939;SDS011;3509;48.510;9.076;2022-07-05T13:49:06;3.35;;;1.40;;
6939;SDS011;3509;48.510;9.076;2022-07-05T13:51:32;1.40;;;1.30;;
6939;SDS011;3509;48.510;9.076;2022-07-05T13:53:57;2.53;;;1.40;;
6939;SDS011;3509;48.510;9.076;2022-07-05T13:56:23;1.45;;;1.35;;
6939;SDS011;3509;48.510;9.076;2022-07-05T13:58:50;1.98;;;1.30;;
6939;SDS011;3509;48.510;9.076;2022-07-05T14:01:16;2.55;;;1.40;;
6939;SDS011;3509;48.510;9.076;2022-07-05T14:03:45;3.55;;;1.30;;
6939;SDS011;3509;48.510;9.076;2022-07-05T14:06:10;2.85;;;1.45;;
6939;SDS011;3509;48.510;9.076;2022-07-05T14:08:36;3.70;;;1.50;;
6939;SDS011;3509;48.510;9.076;2022-07-05T14:11:02;5.72;;;1.40;;
6939;SDS011;3509;48.510;9.076;2022-07-05T14:13:28;5.95;;;1.60;;
6939;SDS011;3509;48.510;9.076;2022-07-05T14:15:54;4.00;;;1.45;;
6939;SDS011;3509;48.510;9.076;2022-07-05T14:18:21;2.40;;;1.30;;
6939;SDS011;3509;48.510;9.076;2022-07-05T14:20:49;2.22;;;1.30;;
6939;SDS011;3509;48.510;9.076;2022-07-05T14:23:15;1.90;;;1.58;;
6939;SDS011;3509;48.510;9.076;2022-07-05T14:25:41;2.05;;;1.50;;
6939;SDS011;3509;48.510;9.076;2022-07-05T14:28:07;2.33;;;1.58;;
6939;SDS011;3509;48.510;9.076;2022-07-05T14:30:34;2.80;;;1.52;;
6939;SDS011;3509;48.510;9.076;2022-07-05T14:33:01;2.95;;;1.55;;
6939;SDS011;3509;48.510;9.076;2022-07-05T14:35:27;3.38;;;1.58;;
6939;SDS011;3509;48.510;9.076;2022-07-05T14:37:53;1.58;;;1.20;;
6939;SDS011;3509;48.510;9.076;2022-07-05T14:40:19;3.40;;;1.58;;
6939;SDS011;3509;48.510;9.076;2022-07-05T14:42:45;3.47;;;1.48;;
6939;SDS011;3509;48.510;9.076;2022-07-05T14:45:10;1.48;;;1.38;;
6939;SDS011;3509;48.510;9.076;2022-07-05T14:47:36;6.07;;;1.67;;
6939;SDS011;3509;48.510;9.076;2022-07-05T14:50:02;2.53;;;1.48;;
6939;SDS011;3509;48.510;9.076;2022-07-05T14:52:29;2.33;;;1.70;;
6939;SDS011;3509;48.510;9.076;2022-07-05T14:54:55;4.43;;;1.77;;
6939;SDS011;3509;48.510;9.076;2022-07-05T14:57:21;3.83;;;1.63;;
6939;SDS011;3509;48.510;9.076;2022-07-05T14:59:47;3.63;;;1.73;;
6939;SDS011;3509;48.510;9.076;2022-07-05T15:02:12;3.08;;;1.90;;
6939;SDS011;3509;48.510;9.076;2022-07-05T15:04:39;4.75;;;1.65;;
6939;SDS011;3509;48.510;9.076;2022-07-05T15:07:05;3.45;;;1.88;;
6939;SDS011;3509;48.510;9.076;2022-07-05T15:09:31;3.92;;;1.60;;
6939;SDS011;3509;48.510;9.076;2022-07-05T15:11:57;2.45;;;1.58;;
6939;SDS011;3509;48.510;9.076;2022-07-05T15:14:23;1.95;;;1.60;;
6939;SDS011;3509;48.510;9.076;2022-07-05T15:16:52;2.33;;;1.40;;
6939;SDS011;3509;48.510;9.076;2022-07-05T15:19:24;1.95;;;1.75;;
6939;SDS011;3509;48.510;9.076;2022-07-05T15:21:49;1.75;;;1.58;;
6939;SDS011;3509;48.510;9.076;2022-07-05T15:24:15;2.88;;;1.50;;
6939;SDS011;3509;48.510;9.076;2022-07-05T15:26:42;4.78;;;1.85;;
6939;SDS011;3509;48.510;9.076;2022-07-05T15:29:10;3.15;;;1.48;;
6939;SDS011;3509;48.510;9.076;2022-07-05T15:31:36;3.72;;;1.65;;
6939;SDS011;3509;48.510;9.076;2022-07-05T15:34:03;2.35;;;1.60;;
6939;SDS011;3509;48.510;9.076;2022-07-05T15:36:29;3.70;;;1.40;;
6939;SDS011;3509;48.510;9.076;2022-07-05T15:39:02;5.97;;;1.60;;